Portada
METAR-TAF:

METAR-TAF

Aeroports :

Crystal Airport

Minneapolis-Crystal, Minnesota, Estats Units d'Amèrica

latitud: 45-03-45N, longitud: 093-21-03W, altitud: 264 m

Observació

L'informe es va fer fa 49 minuts, a les 08:53 UTC
Vent 9 kt del Nord-Oest
Temperatura 11°C
Humitat 100%
Pressió 1013 hPa
Visibilitat: 16.1 km
Cel cobert a una alçada de 900 ft

METAR: KMIC 250853Z AUTO 31009KT 10SM OVC009 11/11 A2990 RMK AO2 SLP125 60000 T01110106 53010

Hora: 04:42 (09:42 UTC)


TAF: manca

Observacions i pronòstics meteorològics de més de 4000 aeroports (METAR i TAF).

Les estacions disponibles són els punts grocs i vermells al mapa.

Posi el ratolí al punt desitjat per veure el nom de l'estació.

Feu clic per veure les observacions i els pronòstics meteorològics.

Per canviar el mapa: feu clic els botons verds amb una creu de color negre per apropar; al botó verd amb un guió per allunyar la imatge; o en les fletxes verdes per a mapes adjacents.


METAR-TAF: